Time;durP1;ratioP1;P1;durP2;ratioP2;P2;SDS_P1;SDS_P2;PMS_P1;PMS_P2;Temp;Humidity;BMP_temperature;BMP_pressure;BME280_temperature;BME280_humidity;BME280_pressure;Samples;Min_cycle;Max_cycle;Signal;HPM_P1;HPM_P2
2023/08/24 00:01:40;;;;;;;6.57;5.07;;;18.00;99.90;;;;;;5125640;27;20222;-79
2023/08/24 00:04:08;;;;;;;7.80;4.57;;;18.20;99.90;;;;;;5112507;27;20238;-79
2023/08/24 00:06:35;;;;;;;8.07;4.88;;;18.30;99.90;;;;;;5130136;27;20209;-80
2023/08/24 00:09:04;;;;;;;7.68;4.50;;;17.90;99.90;;;;;;5132103;27;20206;-80
2023/08/24 00:11:31;;;;;;;6.75;4.53;;;17.90;99.90;;;;;;5127019;27;20282;-79
2023/08/24 00:13:58;;;;;;;8.02;4.78;;;17.90;99.90;;;;;;5109975;28;20659;-81
2023/08/24 00:16:25;;;;;;;6.20;4.95;;;17.90;99.90;;;;;;5109783;28;20307;-81
2023/08/24 00:18:52;;;;;;;6.15;4.60;;;18.00;99.90;;;;;;5122390;27;20199;-82
2023/08/24 00:21:22;;;;;;;6.90;4.63;;;17.90;99.90;;;;;;5128082;27;20223;-81
2023/08/24 00:23:50;;;;;;;6.85;4.95;;;17.70;99.90;;;;;;5109409;28;20203;-79
2023/08/24 00:26:17;;;;;;;6.80;4.20;;;17.90;99.90;;;;;;5111698;28;20252;-80
2023/08/24 00:28:45;;;;;;;6.35;4.25;;;17.80;99.90;;;;;;5130546;27;20198;-79
2023/08/24 00:31:12;;;;;;;6.63;4.35;;;17.60;99.90;;;;;;5112667;27;20214;-81
2023/08/24 00:33:39;;;;;;;6.43;4.73;;;17.70;99.90;;;;;;5117993;27;20624;-80
2023/08/24 00:36:06;;;;;;;6.43;4.60;;;17.70;99.90;;;;;;5114661;27;20227;-80
2023/08/24 00:38:33;;;;;;;7.00;4.83;;;17.60;99.90;;;;;;5116444;27;20208;-81
2023/08/24 00:41:00;;;;;;;6.47;4.43;;;17.70;99.90;;;;;;5122782;27;20195;-81
2023/08/24 00:43:28;;;;;;;6.25;4.40;;;17.60;99.90;;;;;;5107526;28;20196;-80
2023/08/24 00:46:00;;;;;;;6.03;4.37;;;17.50;99.90;;;;;;5109896;28;20218;-80
2023/08/24 00:48:29;;;;;;;6.07;4.53;;;17.60;99.90;;;;;;5110224;28;20236;-81
2023/08/24 00:51:00;;;;;;;6.28;4.50;;;17.60;99.90;;;;;;5124839;27;20306;-80
2023/08/24 00:53:29;;;;;;;9.32;5.20;;;17.50;99.90;;;;;;5117784;27;20202;-82
2023/08/24 00:55:57;;;;;;;7.22;5.00;;;17.50;99.90;;;;;;5119193;28;20206;-80
2023/08/24 00:58:24;;;;;;;6.90;4.85;;;17.60;99.90;;;;;;5129776;27;20798;-81
2023/08/24 01:00:54;;;;;;;7.78;5.55;;;17.60;99.90;;;;;;5113653;28;20311;-80
2023/08/24 01:03:23;;;;;;;7.80;5.97;;;17.60;99.90;;;;;;5120842;28;20243;-79
2023/08/24 01:05:51;;;;;;;11.00;6.05;;;17.60;99.90;;;;;;5108983;28;20206;-80
2023/08/24 01:08:19;;;;;;;7.13;5.55;;;17.70;99.90;;;;;;5110158;28;20214;-82
2023/08/24 01:11:12;;;;;;;8.45;6.30;;;17.60;99.90;;;;;;5130477;28;20274;-81
2023/08/24 01:14:04;;;;;;;7.90;5.70;;;17.60;99.90;;;;;;5121206;28;20195;-81
2023/08/24 01:16:36;;;;;;;10.10;5.95;;;17.60;99.90;;;;;;5124371;28;20238;-82
2023/08/24 01:19:06;;;;;;;7.28;5.82;;;17.60;99.90;;;;;;5123430;28;20245;-82
2023/08/24 01:21:33;;;;;;;8.40;5.40;;;17.60;99.90;;;;;;5124102;28;20188;-80
2023/08/24 01:24:38;;;;;;;12.57;6.70;;;17.70;99.90;;;;;;5112862;28;20921;-80
2023/08/24 01:27:05;;;;;;;10.05;5.80;;;17.70;99.90;;;;;;5110679;27;20251;-80
2023/08/24 01:29:33;;;;;;;11.48;5.75;;;17.70;99.90;;;;;;5126262;27;20203;-81
2023/08/24 01:31:59;;;;;;;9.77;6.50;;;17.70;99.90;;;;;;5115024;27;20225;-80
2023/08/24 01:34:26;;;;;;;9.15;6.60;;;17.50;99.90;;;;;;5122123;27;20203;-81
2023/08/24 01:36:53;;;;;;;9.88;6.18;;;17.80;99.90;;;;;;5131812;27;20226;-82
2023/08/24 01:39:35;;;;;;;9.40;6.57;;;17.80;99.90;;;;;;5134041;27;20578;-81
2023/08/24 01:42:04;;;;;;;11.50;6.05;;;17.60;99.90;;;;;;5103926;28;20256;-80
2023/08/24 01:44:37;;;;;;;11.15;7.00;;;17.80;99.90;;;;;;5118468;27;20667;-81
2023/08/24 01:47:07;;;;;;;8.07;6.07;;;17.80;99.90;;;;;;5102072;28;20709;-80
2023/08/24 01:49:34;;;;;;;8.18;6.47;;;17.70;99.90;;;;;;5116817;27;20569;-80
2023/08/24 01:52:02;;;;;;;11.70;6.60;;;17.70;99.90;;;;;;5120634;27;20202;-82
2023/08/24 01:54:29;;;;;;;9.95;7.15;;;17.60;99.90;;;;;;5103862;28;20218;-81
2023/08/24 01:56:56;;;;;;;10.20;6.63;;;17.70;99.90;;;;;;5112483;28;20215;-80
2023/08/24 01:59:23;;;;;;;11.67;6.37;;;17.70;99.90;;;;;;5115288;27;20199;-80
2023/08/24 02:01:50;;;;;;;12.70;6.93;;;17.90;99.90;;;;;;5113100;28;20227;-80
2023/08/24 02:04:16;;;;;;;10.30;7.68;;;18.20;99.90;;;;;;5114856;27;20292;-81
2023/08/24 02:06:43;;;;;;;10.60;7.25;;;17.70;99.90;;;;;;5113248;28;20218;-81
2023/08/24 02:09:10;;;;;;;9.70;6.53;;;17.80;99.90;;;;;;5115084;27;20196;-82
2023/08/24 02:11:37;;;;;;;8.07;5.35;;;17.70;99.90;;;;;;5101097;27;20199;-80
2023/08/24 02:14:04;;;;;;;9.65;6.80;;;17.80;99.90;;;;;;5115931;27;20279;-82
2023/08/24 02:16:31;;;;;;;10.93;7.22;;;17.90;99.90;;;;;;5122082;27;20259;-81
2023/08/24 02:18:57;;;;;;;9.70;6.70;;;18.60;99.90;;;;;;5099165;28;20199;-81
2023/08/24 02:21:24;;;;;;;12.98;6.70;;;17.40;99.90;;;;;;5117726;27;20249;-80
2023/08/24 02:23:51;;;;;;;9.38;6.65;;;17.90;99.90;;;;;;5128515;27;20259;-81
2023/08/24 02:26:18;;;;;;;10.55;6.90;;;18.70;99.90;;;;;;5092767;27;20198;-81
2023/08/24 02:28:45;;;;;;;8.50;5.95;;;17.50;99.90;;;;;;5133556;27;20198;-81
2023/08/24 02:31:11;;;;;;;11.07;6.95;;;17.50;99.90;;;;;;5125665;27;20210;-81
2023/08/24 02:33:38;;;;;;;10.55;6.05;;;17.80;99.90;;;;;;5131318;27;20243;-81
2023/08/24 02:36:05;;;;;;;7.68;5.57;;;18.50;99.90;;;;;;5116492;27;20243;-81
2023/08/24 02:38:32;;;;;;;8.27;6.03;;;18.00;99.90;;;;;;5132793;27;20728;-80
2023/08/24 02:41:06;;;;;;;12.02;6.88;;;17.30;99.90;;;;;;5126330;27;20882;-81
2023/08/24 02:43:33;;;;;;;10.38;6.32;;;18.00;99.90;;;;;;5125835;27;20198;-82
2023/08/24 02:46:05;;;;;;;11.98;7.20;;;18.00;99.90;;;;;;5113650;27;20211;-81
2023/08/24 02:48:33;;;;;;;11.45;7.38;;;18.70;99.90;;;;;;5126628;27;20617;-80
2023/08/24 02:51:02;;;;;;;11.43;7.65;;;17.80;99.90;;;;;;5121571;27;20493;-81
2023/08/24 02:53:30;;;;;;;12.40;7.38;;;18.10;99.90;;;;;;5113078;27;20202;-81
2023/08/24 02:55:57;;;;;;;10.95;7.25;;;18.10;99.90;;;;;;5097129;27;20187;-81
2023/08/24 02:58:24;;;;;;;10.63;7.20;;;18.00;99.90;;;;;;5113589;27;20226;-82
2023/08/24 03:00:50;;;;;;;8.35;6.32;;;18.00;99.90;;;;;;5115680;27;20215;-80
2023/08/24 03:03:17;;;;;;;10.63;7.43;;;18.00;99.90;;;;;;5121951;27;20198;-81
2023/08/24 03:06:01;;;;;;;13.55;7.85;;;18.00;99.90;;;;;;5120984;27;20198;-80
2023/08/24 03:08:29;;;;;;;11.05;6.93;;;17.90;99.90;;;;;;5132580;27;20225;-81
2023/08/24 03:10:56;;;;;;;12.35;7.40;;;17.90;99.90;;;;;;5132386;27;20207;-79
2023/08/24 03:13:23;;;;;;;12.60;8.10;;;18.10;99.90;;;;;;5117481;27;20199;-81
2023/08/24 03:15:50;;;;;;;11.98;7.93;;;17.70;99.90;;;;;;5115567;27;20692;-80
2023/08/24 03:18:17;;;;;;;14.30;8.65;;;17.70;99.90;;;;;;5111421;28;20235;-80
2023/08/24 03:20:45;;;;;;;16.10;9.30;;;17.70;99.90;;;;;;5127332;27;20198;-80
2023/08/24 03:23:12;;;;;;;14.77;9.43;;;17.80;99.90;;;;;;5127759;27;20662;-82
2023/08/24 03:25:41;;;;;;;12.75;8.52;;;17.80;99.90;;;;;;5098944;28;20207;-81
2023/08/24 03:28:09;;;;;;;11.10;7.97;;;17.80;99.90;;;;;;5121037;27;20359;-80
2023/08/24 03:30:37;;;;;;;11.90;7.40;;;17.80;99.90;;;;;;5117811;27;20226;-81
2023/08/24 03:33:04;;;;;;;13.75;8.93;;;17.80;99.90;;;;;;5126576;27;20256;-81
2023/08/24 03:35:32;;;;;;;16.30;9.10;;;17.80;99.90;;;;;;5118212;27;20264;-80
2023/08/24 03:38:00;;;;;;;12.88;8.07;;;17.80;99.90;;;;;;5130922;27;20274;-80
2023/08/24 03:40:27;;;;;;;11.95;8.57;;;17.80;99.90;;;;;;5128953;27;20603;-80
2023/08/24 03:42:54;;;;;;;14.35;9.20;;;17.80;99.90;;;;;;5123388;27;20282;-78
2023/08/24 03:45:21;;;;;;;13.67;8.50;;;18.10;99.90;;;;;;5113508;27;20327;-81
2023/08/24 03:47:49;;;;;;;15.87;9.50;;;18.10;99.90;;;;;;5117112;27;20274;-80
2023/08/24 03:50:16;;;;;;;12.77;8.23;;;18.10;99.90;;;;;;5130809;27;20202;-79
2023/08/24 03:52:43;;;;;;;13.90;8.90;;;17.60;99.90;;;;;;5129982;27;20529;-79
2023/08/24 03:55:10;;;;;;;12.37;8.57;;;17.60;99.90;;;;;;5121486;27;20821;-79
2023/08/24 03:57:38;;;;;;;14.17;9.03;;;17.50;99.90;;;;;;5126541;27;20563;-80
2023/08/24 04:00:11;;;;;;;14.67;9.27;;;17.50;99.90;;;;;;5103259;28;20198;-81
2023/08/24 04:02:41;;;;;;;16.47;9.57;;;17.50;99.90;;;;;;5112375;27;20211;-79
2023/08/24 04:05:08;;;;;;;16.63;9.27;;;17.50;99.90;;;;;;5112936;27;20195;-81
2023/08/24 04:07:40;;;;;;;10.80;7.70;;;17.80;99.90;;;;;;5113197;27;20259;-81
2023/08/24 04:10:07;;;;;;;16.30;9.90;;;17.30;99.90;;;;;;5125088;27;20210;-80
2023/08/24 04:12:34;;;;;;;12.37;8.40;;;17.30;99.90;;;;;;5113283;27;20200;-81
2023/08/24 04:15:01;;;;;;;12.53;8.50;;;17.20;99.90;;;;;;5109605;27;20207;-79
2023/08/24 04:17:29;;;;;;;12.43;9.13;;;17.20;99.90;;;;;;5108040;27;20690;-80
2023/08/24 04:19:56;;;;;;;14.77;8.90;;;17.20;99.90;;;;;;5101360;27;20200;-80
2023/08/24 04:22:23;;;;;;;16.07;8.83;;;17.30;99.90;;;;;;5108858;27;20195;-80
2023/08/24 04:24:50;;;;;;;13.83;9.37;;;17.10;99.90;;;;;;5112180;27;20202;-80
2023/08/24 04:27:17;;;;;;;14.23;9.40;;;17.10;99.90;;;;;;5111474;27;20203;-80
2023/08/24 04:29:44;;;;;;;15.13;9.57;;;17.20;99.90;;;;;;5106682;27;20195;-80
2023/08/24 04:32:11;;;;;;;15.97;10.07;;;16.80;99.90;;;;;;5112044;27;20219;-79
2023/08/24 04:34:38;;;;;;;14.53;10.07;;;17.10;99.90;;;;;;5099776;28;20248;-80
2023/08/24 04:37:06;;;;;;;15.17;9.83;;;17.10;99.90;;;;;;5107776;28;20218;-80
2023/08/24 04:39:33;;;;;;;15.47;10.37;;;16.90;99.90;;;;;;5089613;28;20219;-80
2023/08/24 04:42:00;;;;;;;16.17;9.83;;;17.10;99.90;;;;;;5108683;28;20203;-80
2023/08/24 04:44:27;;;;;;;14.10;9.83;;;17.10;99.90;;;;;;5107476;27;20198;-81
2023/08/24 04:46:54;;;;;;;14.33;9.97;;;17.00;99.90;;;;;;5105264;28;20219;-81
2023/08/24 04:49:21;;;;;;;16.17;9.43;;;17.10;99.90;;;;;;5127429;27;20215;-81
2023/08/24 04:51:47;;;;;;;15.90;10.40;;;17.10;99.90;;;;;;5121831;27;20207;-79
2023/08/24 04:54:14;;;;;;;14.57;9.53;;;17.00;99.90;;;;;;5110196;28;20202;-80
2023/08/24 04:56:41;;;;;;;15.40;10.30;;;17.00;99.90;;;;;;5110390;28;20593;-81
2023/08/24 04:59:08;;;;;;;15.00;9.97;;;17.40;99.90;;;;;;5120404;28;20295;-80
2023/08/24 05:01:35;;;;;;;16.70;10.17;;;17.00;99.90;;;;;;5108036;28;20222;-79
2023/08/24 05:04:02;;;;;;;14.37;9.63;;;17.00;99.90;;;;;;5097651;28;20219;-79
2023/08/24 05:06:29;;;;;;;16.23;9.67;;;17.10;99.90;;;;;;5102670;28;20264;-81
2023/08/24 05:08:56;;;;;;;15.03;9.50;;;17.10;99.90;;;;;;5113228;28;20612;-79
2023/08/24 05:11:26;;;;;;;16.10;9.80;;;17.10;99.90;;;;;;5113231;28;20203;-82
2023/08/24 05:13:53;;;;;;;12.60;9.02;;;17.10;99.90;;;;;;5109307;28;20212;-80
2023/08/24 05:16:20;;;;;;;13.53;8.90;;;17.20;99.90;;;;;;5110580;28;20222;-81
2023/08/24 05:18:46;;;;;;;13.02;9.52;;;17.20;99.90;;;;;;5117472;28;20706;-80
2023/08/24 05:21:13;;;;;;;15.43;9.57;;;17.20;99.90;;;;;;5108632;28;20247;-80
2023/08/24 05:23:40;;;;;;;14.40;9.25;;;17.30;99.90;;;;;;5108761;28;20663;-79
2023/08/24 05:26:07;;;;;;;12.68;8.70;;;17.30;99.90;;;;;;5109550;28;20587;-80
2023/08/24 05:28:34;;;;;;;14.73;9.32;;;17.30;99.90;;;;;;5115056;28;20206;-79
2023/08/24 05:31:00;;;;;;;16.58;9.10;;;16.90;99.90;;;;;;5123698;28;20691;-79
2023/08/24 05:33:30;;;;;;;12.32;8.68;;;17.40;99.90;;;;;;5106626;28;20579;-79
2023/08/24 05:35:58;;;;;;;14.05;9.10;;;17.40;99.90;;;;;;5108358;28;20570;-81
2023/08/24 05:38:25;;;;;;;12.13;8.75;;;18.40;99.90;;;;;;5099613;28;20785;-81
2023/08/24 05:40:52;;;;;;;13.32;8.40;;;17.50;99.90;;;;;;5098033;28;20191;-79
2023/08/24 05:43:19;;;;;;;15.32;9.30;;;17.60;99.90;;;;;;5100740;28;20203;-80
2023/08/24 05:45:47;;;;;;;13.98;9.70;;;17.60;99.90;;;;;;5107114;28;20238;-80
2023/08/24 05:48:15;;;;;;;11.43;7.70;;;17.80;99.90;;;;;;5110091;28;20208;-82
2023/08/24 05:50:45;;;;;;;11.18;7.97;;;17.90;99.90;;;;;;5103251;28;20202;-79
2023/08/24 05:53:13;;;;;;;11.52;8.45;;;18.00;99.90;;;;;;5112216;28;20199;-80
2023/08/24 05:55:40;;;;;;;14.02;8.85;;;18.10;99.90;;;;;;5112826;28;20215;-79
2023/08/24 05:58:07;;;;;;;11.95;8.52;;;18.20;99.90;;;;;;5087857;28;20226;-82
2023/08/24 06:00:34;;;;;;;11.73;8.20;;;18.30;99.90;;;;;;5100537;28;20247;-79
2023/08/24 06:03:02;;;;;;;14.68;8.98;;;18.40;99.90;;;;;;5102418;28;20206;-80
2023/08/24 06:05:31;;;;;;;11.35;8.27;;;18.40;99.90;;;;;;5098563;28;20222;-79
2023/08/24 06:07:58;;;;;;;12.30;8.63;;;18.40;99.90;;;;;;5113047;28;20195;-83
2023/08/24 06:10:26;;;;;;;13.80;8.75;;;18.60;99.90;;;;;;5109203;28;20260;-84
2023/08/24 06:12:53;;;;;;;11.75;8.15;;;18.60;99.90;;;;;;5105472;28;20202;-84
2023/08/24 06:15:24;;;;;;;11.43;8.40;;;18.50;99.90;;;;;;5112327;27;20199;-84
2023/08/24 06:17:51;;;;;;;13.63;8.60;;;18.60;99.90;;;;;;5111973;27;20649;-83
2023/08/24 06:20:19;;;;;;;14.00;8.73;;;18.70;99.90;;;;;;5112362;27;20218;-84
2023/08/24 06:22:46;;;;;;;13.80;9.02;;;18.90;99.90;;;;;;5110639;27;20929;-85
2023/08/24 06:25:13;;;;;;;12.00;7.78;;;19.50;99.90;;;;;;5092196;27;20203;-83
2023/08/24 06:27:39;;;;;;;11.20;6.72;;;20.20;99.90;;;;;;5105943;27;20196;-84
2023/08/24 06:30:07;;;;;;;8.48;6.70;;;20.90;99.90;;;;;;5110077;27;20206;-85
2023/08/24 06:32:33;;;;;;;12.10;7.25;;;21.60;99.90;;;;;;5097877;27;20235;-83
2023/08/24 06:35:01;;;;;;;11.15;6.85;;;22.30;99.90;;;;;;5107797;27;20199;-85
2023/08/24 06:37:27;;;;;;;17.63;6.72;;;22.80;99.90;;;;;;5094656;28;20195;-84
2023/08/24 06:39:54;;;;;;;9.23;6.00;;;23.30;99.90;;;;;;5117219;27;20211;-87
2023/08/24 06:42:21;;;;;;;8.32;6.05;;;23.60;99.90;;;;;;5111714;27;20268;-84
2023/08/24 06:44:52;;;;;;;9.60;6.65;;;;;;;;;;5087482;27;20207;-86
2023/08/24 06:47:19;;;;;;;9.48;6.55;;;24.40;99.90;;;;;;5099472;27;20212;-82
2023/08/24 06:49:46;;;;;;;8.88;6.30;;;24.70;99.90;;;;;;5082761;28;20211;-84
2023/08/24 06:52:13;;;;;;;8.55;6.10;;;25.00;99.90;;;;;;5085660;28;20202;-83
2023/08/24 06:54:40;;;;;;;10.18;6.70;;;25.40;99.90;;;;;;5117770;27;20206;-83
2023/08/24 06:57:06;;;;;;;8.55;6.30;;;25.70;99.90;;;;;;5103855;27;20517;-83
2023/08/24 06:59:33;;;;;;;9.02;6.20;;;26.10;99.90;;;;;;5097494;27;20311;-82
2023/08/24 07:02:04;;;;;;;8.15;6.07;;;26.40;99.90;;;;;;5112552;27;20219;-82
2023/08/24 07:04:31;;;;;;;10.60;6.65;;;26.80;99.90;;;;;;5113146;27;20191;-83
2023/08/24 07:07:00;;;;;;;10.80;6.78;;;27.20;99.90;;;;;;5092243;28;20203;-82
2023/08/24 07:09:27;;;;;;;9.43;6.32;;;27.70;99.90;;;;;;5094164;28;20250;-82
2023/08/24 07:11:54;;;;;;;7.15;5.85;;;28.10;99.90;;;;;;5116972;27;20203;-79
2023/08/24 07:14:21;;;;;;;12.63;7.15;;;28.30;99.90;;;;;;5113475;27;20191;-81
2023/08/24 07:16:47;;;;;;;7.45;6.10;;;28.60;99.90;;;;;;5115223;27;20291;-82
2023/08/24 07:19:14;;;;;;;9.05;6.97;;;28.70;99.90;;;;;;5104118;28;20226;-81
2023/08/24 07:21:43;;;;;;;11.18;6.88;;;28.80;99.90;;;;;;5102376;28;20195;-80
2023/08/24 07:24:10;;;;;;;7.88;6.30;;;28.90;99.90;;;;;;5116541;27;20706;-79
2023/08/24 07:26:37;;;;;;;10.35;6.65;;;28.90;99.90;;;;;;5113021;27;20608;-80
2023/08/24 07:29:03;;;;;;;8.90;6.43;;;29.10;99.90;;;;;;5109292;27;20207;-80
2023/08/24 07:31:30;;;;;;;10.63;7.07;;;29.10;99.90;;;;;;5106118;27;20215;-80
2023/08/24 07:33:58;;;;;;;9.07;6.80;;;29.20;99.90;;;;;;5094265;28;20206;-82
2023/08/24 07:36:25;;;;;;;9.55;6.53;;;29.40;99.90;;;;;;5093449;27;20202;-79
2023/08/24 07:38:52;;;;;;;10.60;7.07;;;29.50;99.90;;;;;;5111060;27;20633;-80
2023/08/24 07:41:19;;;;;;;8.98;7.03;;;29.60;99.90;;;;;;5118695;27;20251;-80
2023/08/24 07:43:46;;;;;;;9.32;8.00;;;29.70;99.90;;;;;;5096873;28;20668;-81
2023/08/24 07:46:13;;;;;;;11.80;7.65;;;29.70;99.90;;;;;;5106132;27;20241;-81
2023/08/24 07:48:40;;;;;;;8.93;7.68;;;29.80;99.90;;;;;;5096362;28;20208;-79
2023/08/24 07:51:07;;;;;;;8.32;7.10;;;29.80;99.90;;;;;;5115171;27;20651;-79
2023/08/24 07:53:34;;;;;;;8.57;7.25;;;29.90;99.90;;;;;;5130455;27;20205;-80
2023/08/24 07:56:01;;;;;;;10.27;8.25;;;30.00;99.90;;;;;;5131295;27;20206;-80
2023/08/24 07:58:31;;;;;;;9.48;7.57;;;30.00;99.90;;;;;;5112585;27;20245;-80
2023/08/24 08:01:00;;;;;;;9.95;8.32;;;30.00;99.90;;;;;;5113798;27;20282;-80
2023/08/24 08:03:27;;;;;;;9.88;8.35;;;30.10;99.90;;;;;;5111166;27;20316;-79
2023/08/24 08:05:54;;;;;;;11.10;8.70;;;30.10;99.90;;;;;;5113034;27;20214;-78
2023/08/24 08:08:21;;;;;;;13.00;8.55;;;30.00;99.90;;;;;;5131216;27;20255;-80
2023/08/24 08:10:58;;;;;;;10.27;7.65;;;30.00;99.90;;;;;;5104682;28;20218;-80
2023/08/24 08:13:26;;;;;;;10.35;8.13;;;30.00;99.90;;;;;;5126402;27;20272;-79
2023/08/24 08:15:53;;;;;;;12.63;9.10;;;30.00;99.90;;;;;;5117862;27;20219;-80
2023/08/24 08:18:20;;;;;;;12.07;8.27;;;30.10;99.90;;;;;;5109987;28;20207;-80
2023/08/24 08:20:51;;;;;;;10.00;7.78;;;30.20;99.90;;;;;;5123036;27;20198;-81
2023/08/24 08:23:18;;;;;;;10.40;8.35;;;30.40;99.90;;;;;;5092429;28;20192;-80
2023/08/24 08:25:45;;;;;;;11.88;7.50;;;30.50;99.90;;;;;;5113286;27;20209;-79
2023/08/24 08:28:12;;;;;;;10.27;7.90;;;30.60;99.90;;;;;;5110489;27;20673;-80
2023/08/24 08:30:38;;;;;;;10.68;7.75;;;30.50;99.90;;;;;;5116520;27;20215;-78
2023/08/24 08:33:05;;;;;;;9.52;8.48;;;30.40;99.90;;;;;;5115048;27;20211;-79
2023/08/24 08:35:32;;;;;;;10.30;8.32;;;30.20;99.90;;;;;;5115836;27;20198;-80
2023/08/24 08:37:59;;;;;;;9.57;8.18;;;30.30;99.90;;;;;;5095091;28;20253;-81
2023/08/24 08:40:30;;;;;;;10.57;7.63;;;30.20;99.90;;;;;;5110311;28;20206;-79
2023/08/24 08:43:00;;;;;;;9.52;8.07;;;30.20;99.90;;;;;;5091884;28;20192;-79
2023/08/24 08:45:28;;;;;;;14.15;8.68;;;30.10;99.90;;;;;;5114550;27;20270;-78
2023/08/24 08:47:59;;;;;;;10.40;7.68;;;29.90;99.90;;;;;;5111184;28;20199;-80
2023/08/24 08:50:27;;;;;;;12.18;8.27;;;29.80;99.90;;;;;;5091674;28;20221;-79
2023/08/24 08:52:58;;;;;;;10.73;8.55;;;29.60;99.90;;;;;;5109959;28;20213;-79
2023/08/24 08:55:25;;;;;;;10.90;8.85;;;29.50;99.90;;;;;;5115018;28;20298;-78
2023/08/24 08:57:58;;;;;;;12.43;8.38;;;29.40;99.90;;;;;;5112788;28;20234;-79
2023/08/24 09:00:26;;;;;;;11.63;7.93;;;29.30;99.90;;;;;;5117072;28;20326;-79
2023/08/24 09:02:55;;;;;;;14.45;9.15;;;29.20;99.90;;;;;;5112327;28;20195;-79
2023/08/24 09:05:22;;;;;;;11.07;8.48;;;29.20;99.90;;;;;;5118070;28;20218;-79
2023/08/24 09:07:50;;;;;;;10.68;8.98;;;29.10;99.90;;;;;;5114964;28;20233;-80
2023/08/24 09:10:17;;;;;;;11.00;8.80;;;29.00;99.90;;;;;;5118941;28;20188;-80
2023/08/24 09:12:44;;;;;;;14.40;9.32;;;29.00;99.90;;;;;;5115699;28;20202;-79
2023/08/24 09:15:11;;;;;;;11.65;8.85;;;28.90;99.90;;;;;;5115215;28;20199;-79
2023/08/24 09:17:43;;;;;;;12.73;8.52;;;28.70;99.90;;;;;;5099386;28;20248;-79
2023/08/24 09:20:11;;;;;;;14.32;8.80;;;28.60;99.90;;;;;;5111291;28;20267;-78
2023/08/24 09:22:39;;;;;;;13.23;8.90;;;28.60;99.90;;;;;;5109541;28;20211;-78
2023/08/24 09:25:08;;;;;;;12.35;8.90;;;28.60;99.90;;;;;;5119797;28;20267;-79
2023/08/24 09:27:35;;;;;;;13.43;9.48;;;28.60;99.90;;;;;;5109271;28;20290;-79
2023/08/24 09:30:02;;;;;;;13.88;9.35;;;28.70;99.90;;;;;;5114336;28;20202;-78
2023/08/24 09:32:34;;;;;;;13.75;8.40;;;28.70;99.90;;;;;;5118548;28;20571;-77
2023/08/24 09:35:08;;;;;;;12.48;8.10;;;28.90;99.90;;;;;;5109693;28;20275;-77
2023/08/24 09:37:36;;;;;;;12.38;8.40;;;29.10;99.90;;;;;;5095012;28;20207;-78
2023/08/24 09:40:07;;;;;;;15.98;8.50;;;29.20;99.90;;;;;;5121053;28;20241;-79
2023/08/24 09:42:44;;;;;;;12.75;8.73;;;29.40;99.90;;;;;;5109877;28;20513;-80
2023/08/24 09:45:14;;;;;;;12.25;9.07;;;29.60;99.90;;;;;;5111521;28;20230;-77
2023/08/24 09:47:46;;;;;;;11.68;9.13;;;29.60;99.90;;;;;;5105460;28;20187;-78
2023/08/24 09:50:14;;;;;;;11.20;8.15;;;29.80;99.90;;;;;;5121859;27;20203;-78
2023/08/24 09:52:42;;;;;;;13.90;9.45;;;29.90;99.90;;;;;;5114128;27;20680;-78
2023/08/24 09:55:11;;;;;;;11.88;8.48;;;29.90;99.90;;;;;;5099961;28;20675;-78
2023/08/24 09:57:39;;;;;;;14.73;8.95;;;29.90;99.90;;;;;;5112094;28;20227;-77
2023/08/24 10:00:10;;;;;;;13.48;8.60;;;29.90;99.90;;;;;;5112805;27;20226;-78
2023/08/24 10:02:48;;;;;;;12.93;8.27;;;30.10;99.90;;;;;;5100878;27;20201;-78
2023/08/24 10:05:23;;;;;;;13.75;8.65;;;30.20;99.90;;;;;;5096948;28;20210;-78
2023/08/24 10:07:56;;;;;;;11.55;8.60;;;30.30;99.90;;;;;;5110370;28;20199;-78
2023/08/24 10:10:25;;;;;;;12.00;9.07;;;30.20;99.90;;;;;;5112763;28;20202;-80
2023/08/24 10:13:00;;;;;;;14.30;8.55;;;30.20;99.90;;;;;;5115756;27;20731;-78
2023/08/24 10:15:27;;;;;;;11.60;7.95;;;30.10;99.90;;;;;;5115144;27;20245;-78
2023/08/24 10:17:55;;;;;;;11.50;7.90;;;29.90;99.90;;;;;;5110437;27;20666;-78
2023/08/24 10:20:23;;;;;;;10.30;7.93;;;29.80;99.90;;;;;;5112075;27;20225;-78
2023/08/24 10:22:51;;;;;;;9.77;7.68;;;29.70;99.90;;;;;;5105581;28;20195;-78
2023/08/24 10:25:20;;;;;;;14.80;8.80;;;29.60;99.90;;;;;;5089533;28;20660;-78
2023/08/24 10:27:50;;;;;;;11.57;7.85;;;29.60;99.90;;;;;;5114189;27;20218;-78
2023/08/24 10:30:19;;;;;;;11.48;7.32;;;29.60;99.90;;;;;;5112425;28;20253;-78
2023/08/24 10:32:48;;;;;;;12.35;8.23;;;29.60;99.90;;;;;;5119883;27;20209;-78
2023/08/24 10:35:16;;;;;;;9.73;7.88;;;29.60;99.90;;;;;;5121497;27;20280;-78
2023/08/24 10:37:47;;;;;;;12.18;8.52;;;29.70;99.90;;;;;;5096941;28;20713;-80
2023/08/24 10:40:30;;;;;;;11.85;8.02;;;29.60;99.90;;;;;;5111451;27;20616;-79
2023/08/24 10:42:57;;;;;;;11.68;7.90;;;29.60;99.90;;;;;;5100078;27;20255;-78
2023/08/24 10:45:24;;;;;;;12.10;7.50;;;29.60;99.90;;;;;;5087046;27;20220;-78
2023/08/24 10:47:53;;;;;;;9.48;6.95;;;29.70;99.90;;;;;;5090074;28;20214;-81
2023/08/24 10:50:22;;;;;;;9.35;6.18;;;29.80;99.90;;;;;;5111138;27;20222;-79
2023/08/24 10:52:49;;;;;;;7.75;6.25;;;30.00;99.90;;;;;;5112136;28;20187;-78
2023/08/24 10:55:25;;;;;;;9.38;6.70;;;30.00;99.90;;;;;;5120689;27;20238;-80
2023/08/24 10:57:59;;;;;;;9.45;7.43;;;30.10;99.90;;;;;;5117521;27;20257;-79
2023/08/24 11:00:28;;;;;;;13.00;7.28;;;30.10;99.90;;;;;;5110992;27;20604;-81
2023/08/24 11:02:56;;;;;;;11.05;7.53;;;30.10;99.90;;;;;;5118984;27;20195;-79
2023/08/24 11:05:30;;;;;;;10.10;6.88;;;30.00;99.90;;;;;;5097612;27;20236;-78
2023/08/24 11:08:05;;;;;;;13.27;7.00;;;29.80;99.90;;;;;;5096965;27;20263;-79
2023/08/24 11:10:41;;;;;;;9.52;6.50;;;29.70;99.90;;;;;;5120199;27;20263;-78
2023/08/24 11:13:11;;;;;;;8.68;6.85;;;29.60;99.90;;;;;;5117596;27;20190;-79
2023/08/24 11:15:54;;;;;;;10.32;6.85;;;29.50;99.90;;;;;;5096679;28;20207;-79
2023/08/24 11:18:26;;;;;;;9.77;6.90;;;29.40;99.90;;;;;;5110903;28;20788;-78
2023/08/24 11:21:00;;;;;;;11.52;7.10;;;29.40;99.90;;;;;;5116945;27;20196;-78
2023/08/24 11:23:27;;;;;;;8.70;7.05;;;29.30;99.90;;;;;;5091125;28;20203;-78
2023/08/24 11:25:56;;;;;;;9.73;7.38;;;29.30;99.90;;;;;;5099422;27;20199;-79
2023/08/24 11:28:25;;;;;;;10.25;7.70;;;29.30;99.90;;;;;;5111966;27;20215;-79
2023/08/24 11:30:52;;;;;;;10.15;7.10;;;29.30;99.90;;;;;;5118938;27;20268;-78
2023/08/24 11:33:33;;;;;;;11.38;7.40;;;29.30;99.90;;;;;;5125241;27;20194;-80
2023/08/24 11:36:02;;;;;;;13.38;7.72;;;29.20;99.90;;;;;;5102068;27;20195;-79
2023/08/24 11:38:40;;;;;;;11.70;7.50;;;29.10;99.90;;;;;;5110727;27;20260;-78
2023/08/24 11:41:17;;;;;;;9.80;7.60;;;29.10;99.90;;;;;;5106338;27;20280;-80
2023/08/24 11:43:45;;;;;;;10.82;7.60;;;29.00;99.90;;;;;;5110430;27;20187;-79
2023/08/24 11:46:13;;;;;;;11.52;7.80;;;28.80;99.90;;;;;;5113572;27;20234;-79
2023/08/24 11:48:41;;;;;;;10.45;7.57;;;28.70;99.90;;;;;;5117162;27;20282;-82
2023/08/24 11:51:12;;;;;;;13.35;8.10;;;28.70;99.90;;;;;;5115753;27;20571;-80
2023/08/24 11:53:43;;;;;;;11.98;7.82;;;28.60;99.90;;;;;;5115944;27;20199;-80
2023/08/24 11:56:12;;;;;;;11.77;8.70;;;28.70;99.90;;;;;;5115337;27;20203;-80
2023/08/24 11:58:40;;;;;;;9.35;6.97;;;28.70;99.90;;;;;;5114402;27;20219;-81
2023/08/24 12:01:09;;;;;;;10.23;7.05;;;29.00;99.90;;;;;;5119108;27;20710;-79
2023/08/24 12:03:40;;;;;;;12.70;8.88;;;28.90;99.90;;;;;;5114352;27;20203;-80
2023/08/24 12:06:13;;;;;;;11.82;8.15;;;28.90;99.90;;;;;;5114313;27;20294;-80
2023/08/24 12:08:43;;;;;;;15.13;7.90;;;28.90;99.90;;;;;;5117911;27;20199;-80
2023/08/24 12:11:16;;;;;;;12.45;7.93;;;28.90;99.90;;;;;;5107186;27;20207;-78
2023/08/24 12:13:48;;;;;;;10.55;7.20;;;29.30;99.90;;;;;;5108908;27;20215;-79
2023/08/24 12:16:16;;;;;;;10.50;7.93;;;29.00;99.90;;;;;;5103120;28;20693;-83
2023/08/24 12:18:48;;;;;;;13.45;8.00;;;29.10;99.90;;;;;;5104202;27;20230;-82
2023/08/24 12:21:19;;;;;;;13.85;9.23;;;28.80;99.90;;;;;;5109651;27;20213;-80
2023/08/24 12:23:59;;;;;;;10.80;8.13;;;28.90;99.90;;;;;;5109712;28;20203;-80
2023/08/24 12:26:27;;;;;;;12.85;8.70;;;29.00;99.90;;;;;;5115991;27;20210;-79
2023/08/24 12:29:00;;;;;;;13.63;9.13;;;29.00;99.90;;;;;;5121235;27;20201;-80
2023/08/24 12:31:30;;;;;;;12.57;9.23;;;29.20;99.90;;;;;;5118872;27;20210;-81
2023/08/24 12:34:05;;;;;;;13.43;9.40;;;29.20;99.90;;;;;;5102127;27;20211;-80
2023/08/24 12:36:33;;;;;;;12.63;9.20;;;29.20;99.90;;;;;;5113155;27;20316;-80
2023/08/24 12:39:00;;;;;;;12.85;9.63;;;29.20;99.90;;;;;;5113006;27;20203;-80
2023/08/24 12:41:27;;;;;;;12.93;9.85;;;29.30;99.90;;;;;;5089452;27;20658;-80
2023/08/24 12:43:54;;;;;;;14.13;10.70;;;29.30;99.90;;;;;;5113167;27;20248;-78
2023/08/24 12:46:21;;;;;;;13.25;10.13;;;29.30;99.90;;;;;;5110278;27;20535;-78
2023/08/24 12:48:47;;;;;;;14.63;9.63;;;29.20;99.90;;;;;;5115124;27;20203;-79